sensor_id;sensor_type;location;lat;lon;timestamp;pressure;altitude;pressure_sealevel;temperature;humidity
7052;BME280;3567;52.444;13.556;2023-04-05T00:01:14;102114.00;;;-1.90;91.53
7052;BME280;3567;52.444;13.556;2023-04-05T00:03:40;102104.47;;;-1.91;92.41
7052;BME280;3567;52.444;13.556;2023-04-05T00:06:07;102101.09;;;-1.93;92.58
7052;BME280;3567;52.444;13.556;2023-04-05T00:08:32;102103.97;;;-1.96;92.95
7052;BME280;3567;52.444;13.556;2023-04-05T00:10:57;102104.16;;;-1.99;92.14
7052;BME280;3567;52.444;13.556;2023-04-05T00:13:23;102100.84;;;-2.01;93.33
7052;BME280;3567;52.444;13.556;2023-04-05T00:15:49;102106.28;;;-2.04;92.46
7052;BME280;3567;52.444;13.556;2023-04-05T00:18:15;102102.13;;;-2.07;93.37
7052;BME280;3567;52.444;13.556;2023-04-05T00:20:48;102104.00;;;-2.09;92.53
7052;BME280;3567;52.444;13.556;2023-04-05T00:23:14;102104.84;;;-2.08;92.10
7052;BME280;3567;52.444;13.556;2023-04-05T00:25:42;102109.16;;;-2.07;92.33
7052;BME280;3567;52.444;13.556;2023-04-05T00:28:08;102096.47;;;-2.14;93.69
7052;BME280;3567;52.444;13.556;2023-04-05T00:30:33;102097.75;;;-2.19;93.58
7052;BME280;3567;52.444;13.556;2023-04-05T00:32:59;102097.16;;;-2.23;93.36
7052;BME280;3567;52.444;13.556;2023-04-05T00:35:28;102101.66;;;-2.25;93.61
7052;BME280;3567;52.444;13.556;2023-04-05T00:37:54;102099.28;;;-2.28;94.00
7052;BME280;3567;52.444;13.556;2023-04-05T00:40:19;102098.44;;;-2.28;94.80
7052;BME280;3567;52.444;13.556;2023-04-05T00:42:45;102087.19;;;-2.30;93.00
7052;BME280;3567;52.444;13.556;2023-04-05T00:45:12;102095.91;;;-2.30;93.95
7052;BME280;3567;52.444;13.556;2023-04-05T00:47:37;102102.09;;;-2.31;93.43
7052;BME280;3567;52.444;13.556;2023-04-05T00:50:03;102090.91;;;-2.33;94.05
7052;BME280;3567;52.444;13.556;2023-04-05T00:52:30;102095.31;;;-2.33;93.23
7052;BME280;3567;52.444;13.556;2023-04-05T00:54:56;102091.09;;;-2.36;95.16
7052;BME280;3567;52.444;13.556;2023-04-05T00:57:23;102095.63;;;-2.38;95.04
7052;BME280;3567;52.444;13.556;2023-04-05T00:59:49;102084.50;;;-2.42;95.19
7052;BME280;3567;52.444;13.556;2023-04-05T01:02:33;102088.31;;;-2.46;94.38
7052;BME280;3567;52.444;13.556;2023-04-05T01:05:08;102084.00;;;-2.47;94.09
7052;BME280;3567;52.444;13.556;2023-04-05T01:07:47;102090.34;;;-2.49;93.64
7052;BME280;3567;52.444;13.556;2023-04-05T01:10:16;102087.19;;;-2.54;94.95
7052;BME280;3567;52.444;13.556;2023-04-05T01:12:42;102087.41;;;-2.57;93.93
7052;BME280;3567;52.444;13.556;2023-04-05T01:15:08;102089.31;;;-2.59;94.31
7052;BME280;3567;52.444;13.556;2023-04-05T01:17:35;102084.06;;;-2.59;94.87
7052;BME280;3567;52.444;13.556;2023-04-05T01:20:04;102086.81;;;-2.61;95.17
7052;BME280;3567;52.444;13.556;2023-04-05T01:31:01;102077.06;;;-2.72;94.49
7052;BME280;3567;52.444;13.556;2023-04-05T01:33:38;102077.91;;;-2.71;94.44
7052;BME280;3567;52.444;13.556;2023-04-05T01:36:15;102075.50;;;-2.74;95.72
7052;BME280;3567;52.444;13.556;2023-04-05T01:38:43;102078.25;;;-2.76;95.89
7052;BME280;3567;52.444;13.556;2023-04-05T01:41:10;102073.19;;;-2.79;96.00
7052;BME280;3567;52.444;13.556;2023-04-05T01:43:36;102072.38;;;-2.79;95.04
7052;BME280;3567;52.444;13.556;2023-04-05T01:46:01;102076.66;;;-2.78;95.08
7052;BME280;3567;52.444;13.556;2023-04-05T01:48:26;102077.41;;;-2.76;95.36
7052;BME280;3567;52.444;13.556;2023-04-05T01:50:52;102070.25;;;-2.74;95.71
7052;BME280;3567;52.444;13.556;2023-04-05T01:53:17;102074.44;;;-2.72;95.44
7052;BME280;3567;52.444;13.556;2023-04-05T01:55:44;102069.19;;;-2.72;95.40
7052;BME280;3567;52.444;13.556;2023-04-05T01:58:10;102068.16;;;-2.69;96.09
7052;BME280;3567;52.444;13.556;2023-04-05T02:00:35;102059.31;;;-2.68;96.12
7052;BME280;3567;52.444;13.556;2023-04-05T02:03:01;102053.03;;;-2.66;96.23
7052;BME280;3567;52.444;13.556;2023-04-05T02:05:26;102050.28;;;-2.64;96.25
7052;BME280;3567;52.444;13.556;2023-04-05T02:07:51;102056.16;;;-2.60;95.95
7052;BME280;3567;52.444;13.556;2023-04-05T02:10:17;102047.34;;;-2.59;95.92
7052;BME280;3567;52.444;13.556;2023-04-05T02:12:43;102055.94;;;-2.57;96.52
7052;BME280;3567;52.444;13.556;2023-04-05T02:15:09;102060.00;;;-2.53;97.28
7052;BME280;3567;52.444;13.556;2023-04-05T02:17:34;102051.81;;;-2.49;96.89
7052;BME280;3567;52.444;13.556;2023-04-05T02:20:06;102054.81;;;-2.42;97.73
7052;BME280;3567;52.444;13.556;2023-04-05T02:22:32;102049.13;;;-2.36;97.99
7052;BME280;3567;52.444;13.556;2023-04-05T02:24:58;102054.88;;;-2.31;97.01
7052;BME280;3567;52.444;13.556;2023-04-05T02:27:23;102048.47;;;-2.27;97.29
7052;BME280;3567;52.444;13.556;2023-04-05T02:29:49;102048.97;;;-2.22;97.17
7052;BME280;3567;52.444;13.556;2023-04-05T02:32:15;102049.44;;;-2.17;97.18
7052;BME280;3567;52.444;13.556;2023-04-05T02:34:41;102047.31;;;-2.12;97.07
7052;BME280;3567;52.444;13.556;2023-04-05T02:37:07;102049.38;;;-2.04;97.68
7052;BME280;3567;52.444;13.556;2023-04-05T02:39:32;102047.03;;;-1.96;97.90
7052;BME280;3567;52.444;13.556;2023-04-05T02:41:57;102047.38;;;-1.89;96.71
7052;BME280;3567;52.444;13.556;2023-04-05T02:44:23;102052.19;;;-1.83;96.96
7052;BME280;3567;52.444;13.556;2023-04-05T02:46:49;102044.78;;;-1.78;98.53
7052;BME280;3567;52.444;13.556;2023-04-05T02:49:14;102042.78;;;-1.74;97.43
7052;BME280;3567;52.444;13.556;2023-04-05T02:51:39;102042.53;;;-1.71;96.45
7052;BME280;3567;52.444;13.556;2023-04-05T02:54:05;102037.06;;;-1.68;98.10
7052;BME280;3567;52.444;13.556;2023-04-05T02:56:30;102031.44;;;-1.64;96.48
7052;BME280;3567;52.444;13.556;2023-04-05T02:58:56;102030.16;;;-1.58;96.83
7052;BME280;3567;52.444;13.556;2023-04-05T03:01:21;102035.06;;;-1.53;97.11
7052;BME280;3567;52.444;13.556;2023-04-05T03:03:48;102034.69;;;-1.49;96.73
7052;BME280;3567;52.444;13.556;2023-04-05T03:06:13;102036.25;;;-1.46;96.87
7052;BME280;3567;52.444;13.556;2023-04-05T03:08:40;102033.50;;;-1.45;97.29
7052;BME280;3567;52.444;13.556;2023-04-05T03:11:09;102039.13;;;-1.38;97.59
7052;BME280;3567;52.444;13.556;2023-04-05T03:13:35;102032.66;;;-1.34;96.41
7052;BME280;3567;52.444;13.556;2023-04-05T03:16:02;102026.91;;;-1.28;98.38
7052;BME280;3567;52.444;13.556;2023-04-05T03:18:27;102020.38;;;-1.22;96.63
7052;BME280;3567;52.444;13.556;2023-04-05T03:20:54;102018.31;;;-1.19;96.19
7052;BME280;3567;52.444;13.556;2023-04-05T03:23:24;102024.31;;;-1.17;96.93
7052;BME280;3567;52.444;13.556;2023-04-05T03:26:02;102018.78;;;-1.14;97.14
7052;BME280;3567;52.444;13.556;2023-04-05T03:28:29;102028.13;;;-1.10;97.96
7052;BME280;3567;52.444;13.556;2023-04-05T03:30:56;102021.91;;;-1.09;97.23
7052;BME280;3567;52.444;13.556;2023-04-05T03:33:22;102018.31;;;-1.08;96.94
7052;BME280;3567;52.444;13.556;2023-04-05T03:35:47;102010.31;;;-1.06;97.44
7052;BME280;3567;52.444;13.556;2023-04-05T03:38:13;102015.91;;;-0.99;97.54
7052;BME280;3567;52.444;13.556;2023-04-05T03:40:38;102015.66;;;-0.96;97.57
7052;BME280;3567;52.444;13.556;2023-04-05T03:43:04;102007.53;;;-0.93;97.16
7052;BME280;3567;52.444;13.556;2023-04-05T03:45:29;102008.25;;;-0.91;96.80
7052;BME280;3567;52.444;13.556;2023-04-05T03:47:56;102014.31;;;-0.91;96.29
7052;BME280;3567;52.444;13.556;2023-04-05T03:50:22;102008.97;;;-0.89;96.63
7052;BME280;3567;52.444;13.556;2023-04-05T03:52:47;102007.03;;;-0.87;96.35
7052;BME280;3567;52.444;13.556;2023-04-05T03:55:13;102009.44;;;-0.84;96.22
7052;BME280;3567;52.444;13.556;2023-04-05T03:57:41;102006.69;;;-0.83;95.96
7052;BME280;3567;52.444;13.556;2023-04-05T04:00:08;102005.72;;;-0.82;95.50
7052;BME280;3567;52.444;13.556;2023-04-05T04:02:46;102009.91;;;-0.79;95.96
7052;BME280;3567;52.444;13.556;2023-04-05T04:05:12;102008.69;;;-0.75;95.18
7052;BME280;3567;52.444;13.556;2023-04-05T04:07:37;102001.50;;;-0.73;96.18
7052;BME280;3567;52.444;13.556;2023-04-05T04:10:04;102011.91;;;-0.71;96.25
7052;BME280;3567;52.444;13.556;2023-04-05T04:12:30;102010.94;;;-0.70;95.49
7052;BME280;3567;52.444;13.556;2023-04-05T04:14:55;102010.94;;;-0.70;96.35
7052;BME280;3567;52.444;13.556;2023-04-05T04:17:27;102009.03;;;-0.68;94.85
7052;BME280;3567;52.444;13.556;2023-04-05T04:19:53;102007.94;;;-0.66;95.90
7052;BME280;3567;52.444;13.556;2023-04-05T04:22:18;102004.34;;;-0.65;95.35
7052;BME280;3567;52.444;13.556;2023-04-05T04:24:45;102007.72;;;-0.63;96.20
7052;BME280;3567;52.444;13.556;2023-04-05T04:27:14;102010.34;;;-0.63;95.08
7052;BME280;3567;52.444;13.556;2023-04-05T04:29:41;102011.03;;;-0.61;96.46
7052;BME280;3567;52.444;13.556;2023-04-05T04:32:10;102008.41;;;-0.61;95.68
7052;BME280;3567;52.444;13.556;2023-04-05T04:34:36;102009.97;;;-0.58;94.86
7052;BME280;3567;52.444;13.556;2023-04-05T04:37:01;102014.13;;;-0.56;96.48
7052;BME280;3567;52.444;13.556;2023-04-05T04:39:28;102006.25;;;-0.56;95.98
7052;BME280;3567;52.444;13.556;2023-04-05T04:41:55;102009.69;;;-0.55;96.25
7052;BME280;3567;52.444;13.556;2023-04-05T04:44:21;102011.50;;;-0.56;95.62
7052;BME280;3567;52.444;13.556;2023-04-05T04:46:52;102015.81;;;-0.55;96.03
7052;BME280;3567;52.444;13.556;2023-04-05T04:49:19;102004.22;;;-0.52;95.89
7052;BME280;3567;52.444;13.556;2023-04-05T04:51:45;102013.53;;;-0.48;97.00
7052;BME280;3567;52.444;13.556;2023-04-05T04:54:11;102003.69;;;-0.46;96.17
7052;BME280;3567;52.444;13.556;2023-04-05T04:56:37;102007.03;;;-0.44;94.81
7052;BME280;3567;52.444;13.556;2023-04-05T04:59:02;102007.88;;;-0.43;94.36
7052;BME280;3567;52.444;13.556;2023-04-05T05:01:28;102006.78;;;-0.41;96.00
7052;BME280;3567;52.444;13.556;2023-04-05T05:03:53;102008.22;;;-0.37;94.51
7052;BME280;3567;52.444;13.556;2023-04-05T05:06:18;102010.34;;;-0.31;94.96
7052;BME280;3567;52.444;13.556;2023-04-05T05:08:46;102011.78;;;-0.27;95.70
7052;BME280;3567;52.444;13.556;2023-04-05T05:11:13;102000.00;;;-0.22;95.71
7052;BME280;3567;52.444;13.556;2023-04-05T05:13:38;102009.31;;;-0.18;95.65
7052;BME280;3567;52.444;13.556;2023-04-05T05:16:03;102007.84;;;-0.11;95.69
7052;BME280;3567;52.444;13.556;2023-04-05T05:18:29;102009.41;;;-0.09;95.63
7052;BME280;3567;52.444;13.556;2023-04-05T05:20:55;102002.91;;;-0.05;94.57
7052;BME280;3567;52.444;13.556;2023-04-05T05:23:20;102001.81;;;-0.02;95.22
7052;BME280;3567;52.444;13.556;2023-04-05T05:25:46;102000.47;;;0.04;95.58
7052;BME280;3567;52.444;13.556;2023-04-05T05:28:11;102000.91;;;0.09;94.99
7052;BME280;3567;52.444;13.556;2023-04-05T05:30:36;101999.41;;;0.16;94.46
7052;BME280;3567;52.444;13.556;2023-04-05T05:33:02;101993.38;;;0.25;95.93
7052;BME280;3567;52.444;13.556;2023-04-05T05:35:28;101999.81;;;0.32;95.79
7052;BME280;3567;52.444;13.556;2023-04-05T05:37:53;101998.19;;;0.41;95.70
7052;BME280;3567;52.444;13.556;2023-04-05T05:40:18;101996.69;;;0.48;95.54
7052;BME280;3567;52.444;13.556;2023-04-05T05:42:44;102003.13;;;0.55;95.26
7052;BME280;3567;52.444;13.556;2023-04-05T05:45:10;101994.53;;;0.63;95.13
7052;BME280;3567;52.444;13.556;2023-04-05T05:47:36;101999.16;;;0.70;95.22
7052;BME280;3567;52.444;13.556;2023-04-05T05:50:02;101997.78;;;0.76;95.11
7052;BME280;3567;52.444;13.556;2023-04-05T05:52:27;101990.31;;;0.81;94.33
7052;BME280;3567;52.444;13.556;2023-04-05T05:54:53;101994.75;;;0.90;95.46
7052;BME280;3567;52.444;13.556;2023-04-05T05:57:18;101984.22;;;1.00;94.06
7052;BME280;3567;52.444;13.556;2023-04-05T05:59:44;101991.63;;;1.16;93.75
7052;BME280;3567;52.444;13.556;2023-04-05T06:02:09;101985.81;;;1.31;93.34
7052;BME280;3567;52.444;13.556;2023-04-05T06:04:35;101979.16;;;1.47;92.53
7052;BME280;3567;52.444;13.556;2023-04-05T06:07:02;101978.63;;;1.63;92.10
7052;BME280;3567;52.444;13.556;2023-04-05T06:09:28;101978.72;;;1.80;91.26
7052;BME280;3567;52.444;13.556;2023-04-05T06:11:53;101977.31;;;1.96;89.73
7052;BME280;3567;52.444;13.556;2023-04-05T06:14:19;101974.91;;;2.12;89.77
7052;BME280;3567;52.444;13.556;2023-04-05T06:16:44;101991.06;;;2.19;89.21
7052;BME280;3567;52.444;13.556;2023-04-05T06:19:10;102005.66;;;2.23;89.06
7052;BME280;3567;52.444;13.556;2023-04-05T06:21:35;102001.59;;;2.28;87.09
7052;BME280;3567;52.444;13.556;2023-04-05T06:24:00;101994.91;;;2.34;85.73
7052;BME280;3567;52.444;13.556;2023-04-05T06:26:26;102000.59;;;2.39;85.03
7052;BME280;3567;52.444;13.556;2023-04-05T06:28:54;101997.50;;;2.44;85.31
7052;BME280;3567;52.444;13.556;2023-04-05T06:31:34;101999.47;;;2.51;85.46
7052;BME280;3567;52.444;13.556;2023-04-05T06:33:59;101995.25;;;2.58;84.58
7052;BME280;3567;52.444;13.556;2023-04-05T06:36:25;102000.09;;;2.63;84.44
7052;BME280;3567;52.444;13.556;2023-04-05T06:38:51;101994.81;;;2.63;83.53
7052;BME280;3567;52.444;13.556;2023-04-05T06:41:17;101999.50;;;2.69;83.20
7052;BME280;3567;52.444;13.556;2023-04-05T06:43:42;102000.75;;;2.75;83.62
7052;BME280;3567;52.444;13.556;2023-04-05T06:46:08;101999.31;;;2.80;83.46
7052;BME280;3567;52.444;13.556;2023-04-05T06:48:35;102001.25;;;2.88;82.81
7052;BME280;3567;52.444;13.556;2023-04-05T06:51:02;102011.25;;;2.94;83.12
7052;BME280;3567;52.444;13.556;2023-04-05T06:53:28;102006.03;;;3.02;82.40
7052;BME280;3567;52.444;13.556;2023-04-05T06:55:54;101999.63;;;3.05;83.08
7052;BME280;3567;52.444;13.556;2023-04-05T06:58:20;101997.22;;;3.11;82.63
7052;BME280;3567;52.444;13.556;2023-04-05T07:00:46;102002.22;;;3.14;82.22
7052;BME280;3567;52.444;13.556;2023-04-05T07:03:11;101997.66;;;3.25;81.79
7052;BME280;3567;52.444;13.556;2023-04-05T07:05:37;101999.59;;;3.32;82.73
7052;BME280;3567;52.444;13.556;2023-04-05T07:08:02;102000.97;;;3.36;81.83
7052;BME280;3567;52.444;13.556;2023-04-05T07:10:28;101987.03;;;3.52;82.91
7052;BME280;3567;52.444;13.556;2023-04-05T07:12:54;101981.06;;;3.68;82.59
7052;BME280;3567;52.444;13.556;2023-04-05T07:15:19;101980.50;;;3.82;81.19
7052;BME280;3567;52.444;13.556;2023-04-05T07:17:44;101978.13;;;3.97;82.16
7052;BME280;3567;52.444;13.556;2023-04-05T07:20:10;101978.22;;;4.13;81.15
7052;BME280;3567;52.444;13.556;2023-04-05T07:22:36;101969.34;;;4.23;81.28
7052;BME280;3567;52.444;13.556;2023-04-05T07:25:01;101975.50;;;4.31;80.45
7052;BME280;3567;52.444;13.556;2023-04-05T07:27:28;101969.28;;;4.40;80.40
7052;BME280;3567;52.444;13.556;2023-04-05T07:29:55;101971.34;;;4.55;80.30
7052;BME280;3567;52.444;13.556;2023-04-05T07:32:20;101970.88;;;4.59;81.11
7052;BME280;3567;52.444;13.556;2023-04-05T07:34:46;101990.47;;;4.66;81.01
7052;BME280;3567;52.444;13.556;2023-04-05T07:37:12;101993.75;;;4.60;80.13
7052;BME280;3567;52.444;13.556;2023-04-05T07:39:37;101984.25;;;4.50;78.65
7052;BME280;3567;52.444;13.556;2023-04-05T07:42:02;101979.97;;;4.57;80.98
7052;BME280;3567;52.444;13.556;2023-04-05T07:44:28;101988.16;;;4.71;80.26
7052;BME280;3567;52.444;13.556;2023-04-05T07:46:53;101990.53;;;4.83;80.58
7052;BME280;3567;52.444;13.556;2023-04-05T07:49:26;101993.91;;;4.93;80.09
7052;BME280;3567;52.444;13.556;2023-04-05T07:51:58;101992.72;;;4.87;77.11
7052;BME280;3567;52.444;13.556;2023-04-05T07:54:23;101998.84;;;4.80;78.09
7052;BME280;3567;52.444;13.556;2023-04-05T07:56:49;101997.84;;;4.81;78.44
7052;BME280;3567;52.444;13.556;2023-04-05T07:59:15;102000.38;;;4.98;78.44
7052;BME280;3567;52.444;13.556;2023-04-05T08:01:40;101997.16;;;5.29;75.90
7052;BME280;3567;52.444;13.556;2023-04-05T08:04:06;101994.22;;;5.57;76.07
7052;BME280;3567;52.444;13.556;2023-04-05T08:06:31;101987.91;;;5.82;76.13
7052;BME280;3567;52.444;13.556;2023-04-05T08:08:57;101986.75;;;6.01;74.86
7052;BME280;3567;52.444;13.556;2023-04-05T08:11:22;101986.09;;;5.99;73.83
7052;BME280;3567;52.444;13.556;2023-04-05T08:13:48;101983.78;;;6.04;73.71
7052;BME280;3567;52.444;13.556;2023-04-05T08:16:13;101976.94;;;6.10;73.55
7052;BME280;3567;52.444;13.556;2023-04-05T08:18:39;101979.06;;;6.22;73.14
7052;BME280;3567;52.444;13.556;2023-04-05T08:21:04;101988.84;;;6.46;72.14
7052;BME280;3567;52.444;13.556;2023-04-05T08:23:30;101987.59;;;6.73;71.20
7052;BME280;3567;52.444;13.556;2023-04-05T08:25:56;101974.22;;;6.81;68.71
7052;BME280;3567;52.444;13.556;2023-04-05T08:28:22;101973.38;;;6.89;66.94
7052;BME280;3567;52.444;13.556;2023-04-05T08:30:47;101977.13;;;7.03;66.63
7052;BME280;3567;52.444;13.556;2023-04-05T08:33:16;101970.34;;;7.23;63.58
7052;BME280;3567;52.444;13.556;2023-04-05T08:35:42;101959.75;;;7.15;62.13
7052;BME280;3567;52.444;13.556;2023-04-05T08:38:08;101967.16;;;6.97;61.16
7052;BME280;3567;52.444;13.556;2023-04-05T08:40:44;101964.56;;;6.89;61.73
7052;BME280;3567;52.444;13.556;2023-04-05T08:43:36;101965.16;;;6.99;61.75
7052;BME280;3567;52.444;13.556;2023-04-05T08:46:07;101952.59;;;7.39;59.57
7052;BME280;3567;52.444;13.556;2023-04-05T08:48:34;101955.63;;;7.35;59.72
7052;BME280;3567;52.444;13.556;2023-04-05T08:51:00;101962.28;;;7.54;60.79
7052;BME280;3567;52.444;13.556;2023-04-05T08:53:25;101950.97;;;7.75;58.85
7052;BME280;3567;52.444;13.556;2023-04-05T08:55:54;101959.97;;;7.74;60.08
7052;BME280;3567;52.444;13.556;2023-04-05T08:58:21;101959.00;;;7.90;60.07
7052;BME280;3567;52.444;13.556;2023-04-05T09:00:49;101948.47;;;8.11;58.82
7052;BME280;3567;52.444;13.556;2023-04-05T09:03:17;101961.84;;;8.56;59.34
7052;BME280;3567;52.444;13.556;2023-04-05T09:05:47;101956.81;;;8.97;57.64
7052;BME280;3567;52.444;13.556;2023-04-05T09:08:13;101948.53;;;9.28;56.88
7052;BME280;3567;52.444;13.556;2023-04-05T09:10:39;101948.47;;;9.64;57.08
7052;BME280;3567;52.444;13.556;2023-04-05T09:13:04;101926.81;;;9.59;54.25
7052;BME280;3567;52.444;13.556;2023-04-05T09:15:30;101932.59;;;9.20;53.85
7052;BME280;3567;52.444;13.556;2023-04-05T09:17:56;101937.97;;;9.05;54.90
7052;BME280;3567;52.444;13.556;2023-04-05T09:20:22;101923.53;;;9.21;52.10
7052;BME280;3567;52.444;13.556;2023-04-05T09:22:47;101926.72;;;9.31;52.02
7052;BME280;3567;52.444;13.556;2023-04-05T09:25:35;101921.56;;;9.08;51.82
7052;BME280;3567;52.444;13.556;2023-04-05T09:28:03;101922.44;;;8.94;52.82
7052;BME280;3567;52.444;13.556;2023-04-05T09:30:29;101936.63;;;8.95;52.60
7052;BME280;3567;52.444;13.556;2023-04-05T09:32:55;101931.28;;;8.58;52.10
7052;BME280;3567;52.444;13.556;2023-04-05T09:35:31;101938.00;;;8.39;53.59
7052;BME280;3567;52.444;13.556;2023-04-05T09:37:59;101941.78;;;8.60;55.10
7052;BME280;3567;52.444;13.556;2023-04-05T09:40:45;101926.97;;;8.93;53.98
7052;BME280;3567;52.444;13.556;2023-04-05T09:43:12;101921.31;;;9.25;53.10
7052;BME280;3567;52.444;13.556;2023-04-05T09:45:39;101918.16;;;9.64;51.88
7052;BME280;3567;52.444;13.556;2023-04-05T09:48:08;101924.63;;;9.97;51.24
7052;BME280;3567;52.444;13.556;2023-04-05T09:50:34;101915.38;;;10.00;50.12
7052;BME280;3567;52.444;13.556;2023-04-05T09:53:07;101915.47;;;9.85;49.31
7052;BME280;3567;52.444;13.556;2023-04-05T09:55:33;101910.94;;;9.58;49.43
7052;BME280;3567;52.444;13.556;2023-04-05T09:58:00;101907.09;;;9.67;50.30
7052;BME280;3567;52.444;13.556;2023-04-05T10:00:25;101906.13;;;10.31;49.96
7052;BME280;3567;52.444;13.556;2023-04-05T10:02:52;101898.88;;;10.66;47.81
7052;BME280;3567;52.444;13.556;2023-04-05T10:05:23;101908.31;;;10.62;48.78
7052;BME280;3567;52.444;13.556;2023-04-05T10:07:49;101890.75;;;10.53;46.54
7052;BME280;3567;52.444;13.556;2023-04-05T10:10:14;101891.19;;;10.49;48.10
7052;BME280;3567;52.444;13.556;2023-04-05T10:12:41;101895.63;;;10.90;47.56
7052;BME280;3567;52.444;13.556;2023-04-05T10:15:07;101888.59;;;10.76;45.75
7052;BME280;3567;52.444;13.556;2023-04-05T10:17:38;101883.16;;;10.56;46.78
7052;BME280;3567;52.444;13.556;2023-04-05T10:28:09;101895.28;;;9.55;47.96
7052;BME280;3567;52.444;13.556;2023-04-05T10:30:43;101895.66;;;9.30;47.96
7052;BME280;3567;52.444;13.556;2023-04-05T10:35:59;101898.84;;;8.98;50.74
7052;BME280;3567;52.444;13.556;2023-04-05T10:38:28;101906.91;;;8.83;50.29
7052;BME280;3567;52.444;13.556;2023-04-05T10:41:06;101910.63;;;8.67;51.58
7052;BME280;3567;52.444;13.556;2023-04-05T10:43:36;101910.28;;;8.55;52.21
7052;BME280;3567;52.444;13.556;2023-04-05T10:46:03;101912.13;;;8.40;53.44
7052;BME280;3567;52.444;13.556;2023-04-05T10:51:32;101914.66;;;8.78;54.75
7052;BME280;3567;52.444;13.556;2023-04-05T10:53:59;101909.22;;;8.86;53.54
7052;BME280;3567;52.444;13.556;2023-04-05T10:56:25;101896.66;;;8.86;53.60
7052;BME280;3567;52.444;13.556;2023-04-05T10:58:52;101908.56;;;9.05;53.01
7052;BME280;3567;52.444;13.556;2023-04-05T11:01:19;101903.94;;;9.14;51.70
7052;BME280;3567;52.444;13.556;2023-04-05T11:03:49;101900.06;;;8.95;52.34
7052;BME280;3567;52.444;13.556;2023-04-05T11:06:31;101893.66;;;8.75;52.22
7052;BME280;3567;52.444;13.556;2023-04-05T11:09:09;101903.84;;;8.50;53.48
7052;BME280;3567;52.444;13.556;2023-04-05T11:11:43;101898.97;;;8.38;54.92
7052;BME280;3567;52.444;13.556;2023-04-05T11:14:18;101905.09;;;8.24;54.89
7052;BME280;3567;52.444;13.556;2023-04-05T11:16:46;101912.66;;;8.06;55.56
7052;BME280;3567;52.444;13.556;2023-04-05T11:19:15;101914.28;;;7.92;56.38
7052;BME280;3567;52.444;13.556;2023-04-05T11:21:40;101911.16;;;7.74;56.85
7052;BME280;3567;52.444;13.556;2023-04-05T11:24:12;101915.81;;;7.57;57.77
7052;BME280;3567;52.444;13.556;2023-04-05T11:29:14;101925.81;;;7.32;58.65
7052;BME280;3567;52.444;13.556;2023-04-05T11:32:10;101928.53;;;7.24;59.73
7052;BME280;3567;52.444;13.556;2023-04-05T11:34:36;101930.03;;;7.26;59.24
7052;BME280;3567;52.444;13.556;2023-04-05T11:37:02;101930.06;;;7.18;59.96
7052;BME280;3567;52.444;13.556;2023-04-05T11:39:27;101930.38;;;7.23;60.98
7052;BME280;3567;52.444;13.556;2023-04-05T11:41:55;101927.69;;;7.23;60.82
7052;BME280;3567;52.444;13.556;2023-04-05T11:44:22;101926.69;;;7.24;61.11
7052;BME280;3567;52.444;13.556;2023-04-05T11:46:49;101927.56;;;7.40;61.10
7052;BME280;3567;52.444;13.556;2023-04-05T11:49:15;101919.09;;;7.59;60.47
7052;BME280;3567;52.444;13.556;2023-04-05T11:51:41;101924.94;;;7.77;60.07
7052;BME280;3567;52.444;13.556;2023-04-05T11:54:33;101911.25;;;7.80;57.57
7052;BME280;3567;52.444;13.556;2023-04-05T11:56:59;101909.22;;;7.82;59.67
7052;BME280;3567;52.444;13.556;2023-04-05T11:59:32;101908.91;;;8.15;59.37
7052;BME280;3567;52.444;13.556;2023-04-05T12:01:58;101909.34;;;8.63;58.32
7052;BME280;3567;52.444;13.556;2023-04-05T12:04:24;101901.06;;;8.94;58.04
7052;BME280;3567;52.444;13.556;2023-04-05T12:07:07;101901.41;;;9.06;57.07
7052;BME280;3567;52.444;13.556;2023-04-05T12:09:32;101891.72;;;9.05;56.47
7052;BME280;3567;52.444;13.556;2023-04-05T12:11:58;101885.47;;;8.76;56.36
7052;BME280;3567;52.444;13.556;2023-04-05T12:14:23;101894.84;;;8.72;56.94
7052;BME280;3567;52.444;13.556;2023-04-05T12:16:49;101891.31;;;8.50;56.15
7052;BME280;3567;52.444;13.556;2023-04-05T12:19:15;101887.06;;;8.41;56.52
7052;BME280;3567;52.444;13.556;2023-04-05T12:21:40;101888.06;;;8.25;57.47
7052;BME280;3567;52.444;13.556;2023-04-05T12:24:06;101885.03;;;7.99;56.90
7052;BME280;3567;52.444;13.556;2023-04-05T12:26:33;101892.84;;;7.85;58.16
7052;BME280;3567;52.444;13.556;2023-04-05T12:29:02;101895.28;;;7.57;59.73
7052;BME280;3567;52.444;13.556;2023-04-05T12:31:41;101902.06;;;7.22;60.93
7052;BME280;3567;52.444;13.556;2023-04-05T12:34:08;101903.81;;;7.07;61.95
7052;BME280;3567;52.444;13.556;2023-04-05T12:36:34;101895.50;;;7.10;60.37
7052;BME280;3567;52.444;13.556;2023-04-05T12:39:05;101888.22;;;7.04;60.93
7052;BME280;3567;52.444;13.556;2023-04-05T12:41:31;101887.50;;;7.10;60.12
7052;BME280;3567;52.444;13.556;2023-04-05T12:43:58;101880.53;;;7.09;56.73
7052;BME280;3567;52.444;13.556;2023-04-05T12:46:52;101883.88;;;7.03;58.13
7052;BME280;3567;52.444;13.556;2023-04-05T12:49:26;101881.50;;;7.08;58.28
7052;BME280;3567;52.444;13.556;2023-04-05T12:51:52;101877.97;;;7.16;57.58
7052;BME280;3567;52.444;13.556;2023-04-05T12:54:21;101871.00;;;7.29;58.66
7052;BME280;3567;52.444;13.556;2023-04-05T12:56:51;101872.22;;;7.65;59.25
7052;BME280;3567;52.444;13.556;2023-04-05T12:59:18;101868.78;;;7.94;58.52
7052;BME280;3567;52.444;13.556;2023-04-05T13:01:44;101865.44;;;8.21;57.68
7052;BME280;3567;52.444;13.556;2023-04-05T13:04:09;101861.56;;;8.09;55.38
7052;BME280;3567;52.444;13.556;2023-04-05T13:06:35;101860.66;;;7.87;57.13
7052;BME280;3567;52.444;13.556;2023-04-05T13:09:00;101858.63;;;7.74;57.06
7052;BME280;3567;52.444;13.556;2023-04-05T13:11:25;101856.97;;;7.73;56.44
7052;BME280;3567;52.444;13.556;2023-04-05T13:13:52;101865.97;;;7.72;56.55
7052;BME280;3567;52.444;13.556;2023-04-05T13:16:17;101864.41;;;7.63;57.46
7052;BME280;3567;52.444;13.556;2023-04-05T13:18:42;101861.06;;;7.61;57.88
7052;BME280;3567;52.444;13.556;2023-04-05T13:21:08;101849.03;;;7.65;56.74
7052;BME280;3567;52.444;13.556;2023-04-05T13:23:38;101848.03;;;7.66;55.94
7052;BME280;3567;52.444;13.556;2023-04-05T13:26:05;101843.53;;;7.81;56.81
7052;BME280;3567;52.444;13.556;2023-04-05T13:28:30;101853.56;;;8.09;57.17
7052;BME280;3567;52.444;13.556;2023-04-05T13:30:56;101837.09;;;8.20;54.65
7052;BME280;3567;52.444;13.556;2023-04-05T13:33:21;101838.56;;;8.23;54.22